createdAt,value
2022-11-22T07:07:52.109Z,-1.08
2022-11-22T07:10:31.492Z,-1.05
2022-11-22T07:13:11.920Z,-1.00
2022-11-22T07:19:31.938Z,-0.84
2022-11-22T07:22:25.107Z,-0.78
2022-11-22T07:25:22.189Z,-0.71
2022-11-22T07:28:10.396Z,-0.64
2022-11-22T07:30:56.023Z,-0.59
2022-11-22T07:33:31.271Z,-0.56
2022-11-22T07:36:36.563Z,-0.55
2022-11-22T07:39:22.342Z,-0.54
2022-11-22T07:42:01.605Z,-0.52
2022-11-22T07:45:00.265Z,-0.52
2022-11-22T07:48:07.398Z,-0.49
2022-11-22T07:50:50.987Z,-0.45
2022-11-22T07:53:44.791Z,-0.41
2022-11-22T07:56:27.866Z,-0.37
2022-11-22T07:59:30.171Z,-0.30
2022-11-22T08:02:31.923Z,-0.25
2022-11-22T08:05:28.666Z,-0.26
2022-11-22T08:08:23.699Z,-0.25
2022-11-22T08:11:57.755Z,-0.22
2022-11-22T08:14:51.576Z,-0.21
2022-11-22T08:17:45.124Z,-0.19
2022-11-22T08:20:51.519Z,-0.15
2022-11-22T08:23:38.644Z,-0.10
2022-11-22T08:26:26.693Z,-0.06
2022-11-22T08:29:19.532Z,-0.05
2022-11-22T08:32:26.233Z,-0.11
2022-11-22T08:35:13.375Z,-0.12
2022-11-22T08:37:48.399Z,-0.09
2022-11-22T08:40:55.186Z,-0.08
2022-11-22T08:43:38.762Z,-0.05
2022-11-22T08:46:15.323Z,0.02
2022-11-22T08:49:00.432Z,0.08
2022-11-22T08:51:52.195Z,0.08
2022-11-22T08:54:37.916Z,0.04
2022-11-22T08:57:10.563Z,0.04
2022-11-22T09:00:17.427Z,0.02
2022-11-22T09:02:46.862Z,0.05
2022-11-22T09:05:32.511Z,0.08
2022-11-22T09:08:26.061Z,0.07
2022-11-22T09:11:20.898Z,0.08
2022-11-22T09:14:15.174Z,0.15
2022-11-22T09:17:14.617Z,0.19
2022-11-22T09:19:47.584Z,0.22
2022-11-22T09:22:28.609Z,0.24
2022-11-22T09:25:32.358Z,0.23
2022-11-22T09:28:07.747Z,0.21
2022-11-22T09:31:22.783Z,0.20
2022-11-22T09:34:04.147Z,0.24
2022-11-22T09:37:05.365Z,0.32
2022-11-22T09:43:50.023Z,0.45
2022-11-22T09:46:37.950Z,0.55
2022-11-22T09:49:52.055Z,0.61
2022-11-22T09:52:54.660Z,0.71
2022-11-22T09:55:57.514Z,0.74
2022-11-22T09:58:38.219Z,0.74
2022-11-22T10:01:54.507Z,0.74
2022-11-22T10:08:21.435Z,0.75
2022-11-22T10:10:54.462Z,0.76
2022-11-22T10:13:54.575Z,0.82
2022-11-22T10:17:01.277Z,0.88
2022-11-22T10:19:53.086Z,0.90
2022-11-22T10:22:41.874Z,0.99
2022-11-22T10:25:52.888Z,1.06
2022-11-22T10:28:43.152Z,1.07
2022-11-22T10:32:00.371Z,1.09
2022-11-22T10:34:59.024Z,1.18
2022-11-22T10:37:42.668Z,1.20
2022-11-22T10:40:50.395Z,1.25
2022-11-22T10:43:58.594Z,1.28
2022-11-22T10:47:07.425Z,1.31
2022-11-22T10:50:26.939Z,1.35
2022-11-22T10:53:22.516Z,1.34
2022-11-22T10:56:33.738Z,1.32
2022-11-22T10:59:44.202Z,1.34
2022-11-22T11:03:06.876Z,1.35
2022-11-22T11:12:32.546Z,1.39
2022-11-22T11:15:41.561Z,1.41
2022-11-22T11:18:36.994Z,1.46
2022-11-22T11:21:20.174Z,1.50
2022-11-22T11:24:24.372Z,1.49
2022-11-22T11:27:19.138Z,1.51
2022-11-22T11:30:20.703Z,1.58
2022-11-22T11:33:21.759Z,1.60
2022-11-22T11:36:42.539Z,1.67
2022-11-22T11:39:29.658Z,1.72
2022-11-22T11:42:32.285Z,1.72
2022-11-22T11:45:26.780Z,1.71
2022-11-22T11:47:56.234Z,1.67
2022-11-22T11:51:01.371Z,1.70
2022-11-22T11:53:42.723Z,1.67
2022-11-22T11:56:29.095Z,1.62
2022-11-22T11:59:32.555Z,1.59
2022-11-22T12:02:27.712Z,1.59
2022-11-22T12:05:32.186Z,1.56
2022-11-22T12:08:30.055Z,1.51
2022-11-22T12:11:25.377Z,1.47
2022-11-22T12:14:48.726Z,1.43
2022-11-22T12:17:47.325Z,1.39
2022-11-22T12:20:25.428Z,1.37
2022-11-22T12:23:33.855Z,1.39
2022-11-22T12:26:14.709Z,1.40
2022-11-22T12:28:44.237Z,1.41
2022-11-22T12:31:30.208Z,1.37
2022-11-22T12:34:22.853Z,1.35
2022-11-22T12:37:43.003Z,1.36
2022-11-22T12:40:39.274Z,1.38
2022-11-22T12:43:35.709Z,1.38
2022-11-22T12:46:33.698Z,1.34
2022-11-22T12:49:31.041Z,1.29
2022-11-22T12:52:45.413Z,1.26
2022-11-22T12:56:01.442Z,1.29
2022-11-22T12:59:10.326Z,1.30
2022-11-22T13:02:33.133Z,1.30
2022-11-22T13:05:48.571Z,1.28
2022-11-22T13:12:44.314Z,1.25
2022-11-22T13:15:39.600Z,1.21
2022-11-22T13:18:36.997Z,1.17
2022-11-22T13:21:27.668Z,1.16
2022-11-22T13:24:18.273Z,1.14
2022-11-22T13:27:23.898Z,1.13
2022-11-22T13:30:05.946Z,1.11
2022-11-22T13:32:49.159Z,1.11
2022-11-22T13:35:33.305Z,1.08
2022-11-22T13:38:16.205Z,1.05
2022-11-22T13:40:58.436Z,1.00
2022-11-22T13:43:53.791Z,0.96
2022-11-22T13:47:03.849Z,0.93
2022-11-22T13:49:50.705Z,0.89
2022-11-22T13:52:53.492Z,0.86
2022-11-22T13:55:42.429Z,0.83
2022-11-22T13:59:01.331Z,0.80
2022-11-22T14:01:40.332Z,0.78
2022-11-22T14:04:34.436Z,0.79
2022-11-22T14:07:36.541Z,0.75
2022-11-22T14:10:56.379Z,0.74
2022-11-22T14:14:00.844Z,0.74
2022-11-22T14:17:14.383Z,0.73
2022-11-22T14:20:12.520Z,0.70
2022-11-22T14:23:16.418Z,0.66
2022-11-22T14:26:51.511Z,0.65
2022-11-22T14:30:04.519Z,0.64
2022-11-22T14:33:11.132Z,0.63
2022-11-22T14:36:07.002Z,0.57
2022-11-22T14:38:57.989Z,0.50
2022-11-22T14:41:45.615Z,0.47
2022-11-22T14:44:39.074Z,0.46
2022-11-22T14:47:58.751Z,0.47
2022-11-22T14:50:59.900Z,0.47
2022-11-22T14:53:57.732Z,0.44
2022-11-22T14:56:46.644Z,0.41
2022-11-22T14:59:58.537Z,0.40
2022-11-22T15:02:47.075Z,0.37
2022-11-22T15:09:23.873Z,0.33
2022-11-22T15:10:02.127Z,0.32
2022-11-22T15:13:12.491Z,0.30
2022-11-22T15:58:25.975Z,0.34
2022-11-22T16:01:19.502Z,0.34
2022-11-22T16:04:22.618Z,0.32
2022-11-22T16:07:04.123Z,0.31
2022-11-22T16:10:06.278Z,0.30
2022-11-22T16:12:43.940Z,0.31
2022-11-22T16:15:43.910Z,0.30
2022-11-22T16:18:40.016Z,0.25
2022-11-22T16:25:13.305Z,0.18
2022-11-22T16:28:02.379Z,0.20
2022-11-22T16:31:02.386Z,0.23
2022-11-22T16:33:35.604Z,0.20
2022-11-22T16:36:32.005Z,0.15
2022-11-22T16:39:03.183Z,0.11
2022-11-22T16:42:02.404Z,0.10
2022-11-22T16:44:39.410Z,0.07
2022-11-22T16:50:35.653Z,0.05
2022-11-22T16:53:51.731Z,0.03
2022-11-22T16:56:39.607Z,-0.01
2022-11-22T16:59:21.950Z,-0.05
2022-11-22T17:02:00.070Z,-0.06
2022-11-22T17:04:39.445Z,-0.09
2022-11-22T17:07:33.023Z,-0.12
2022-11-22T17:10:26.773Z,-0.17
2022-11-22T17:13:05.602Z,-0.21
2022-11-22T17:15:46.873Z,-0.21
2022-11-22T17:18:26.399Z,-0.20
2022-11-22T17:21:12.489Z,-0.20
2022-11-22T17:24:06.955Z,-0.21
2022-11-22T17:27:03.283Z,-0.20
2022-11-22T17:29:51.418Z,-0.20
2022-11-22T17:32:34.433Z,-0.20
2022-11-22T17:35:13.701Z,-0.22
2022-11-22T17:37:59.067Z,-0.24
2022-11-22T17:40:59.205Z,-0.23
2022-11-22T17:54:39.150Z,-0.00
2022-11-22T17:57:08.235Z,0.09
2022-11-22T17:59:38.971Z,0.05
2022-11-22T18:02:22.585Z,0.03
2022-11-22T18:05:30.989Z,0.00
2022-11-22T18:08:01.124Z,-0.04
2022-11-22T18:10:31.820Z,-0.10
2022-11-22T18:13:20.712Z,-0.18
2022-11-22T18:16:22.706Z,-0.27
2022-11-22T18:18:57.126Z,-0.33
2022-11-22T18:21:35.225Z,-0.33
2022-11-22T18:24:09.589Z,-0.33
2022-11-22T18:26:45.329Z,-0.33
2022-11-22T18:32:06.590Z,-0.33
2022-11-22T18:34:41.131Z,-0.33
2022-11-22T18:37:20.014Z,-0.33
2022-11-22T18:39:54.023Z,-0.32
2022-11-22T18:42:36.949Z,-0.27
2022-11-22T18:45:24.005Z,-0.22
2022-11-22T18:48:03.827Z,-0.27
2022-11-22T18:50:52.575Z,-0.29
2022-11-22T18:53:30.899Z,-0.30
2022-11-22T18:56:10.233Z,-0.28
2022-11-22T18:58:56.348Z,-0.27
2022-11-22T19:01:46.940Z,-0.27
2022-11-22T19:04:34.004Z,-0.28
2022-11-22T19:07:18.293Z,-0.27
2022-11-22T19:10:06.245Z,-0.24
2022-11-22T19:12:37.504Z,-0.19
2022-11-22T19:15:17.029Z,-0.15
2022-11-22T19:17:51.885Z,-0.14
2022-11-22T19:20:53.928Z,-0.14
2022-11-22T19:26:21.713Z,-0.16
2022-11-22T19:29:13.678Z,-0.16
2022-11-22T19:31:43.496Z,-0.16
2022-11-22T19:34:19.028Z,-0.16
2022-11-22T19:36:55.829Z,-0.16
2022-11-22T19:39:34.566Z,-0.15
2022-11-22T19:42:18.450Z,-0.11
2022-11-22T19:45:16.638Z,-0.11
2022-11-22T19:48:05.685Z,-0.12
2022-11-22T19:50:53.944Z,-0.13
2022-11-22T19:54:00.636Z,-0.15
2022-11-22T19:56:51.334Z,-0.16
2022-11-22T19:59:21.328Z,-0.16
2022-11-22T20:01:55.176Z,-0.14
2022-11-22T20:04:34.241Z,-0.16
2022-11-22T20:07:23.885Z,-0.17
2022-11-22T20:10:04.939Z,-0.17
2022-11-22T20:12:41.390Z,-0.15
2022-11-22T20:15:18.807Z,-0.13
2022-11-22T20:17:48.620Z,-0.16
2022-11-22T20:20:20.447Z,-0.18
2022-11-22T20:22:51.806Z,-0.19
2022-11-22T20:25:23.921Z,-0.20
2022-11-22T20:28:00.298Z,-0.21
2022-11-22T20:30:30.394Z,-0.22
2022-11-22T20:33:01.791Z,-0.23
2022-11-22T20:35:49.359Z,-0.23
2022-11-22T20:38:30.994Z,-0.20
2022-11-22T20:41:04.849Z,-0.17
2022-11-22T20:43:35.298Z,-0.16
2022-11-22T20:46:07.528Z,-0.17
2022-11-22T20:48:38.801Z,-0.16
2022-11-22T20:51:20.880Z,-0.16
2022-11-22T20:56:49.673Z,-0.23
2022-11-22T20:59:25.254Z,-0.24
2022-11-22T21:01:56.648Z,-0.23
2022-11-22T21:04:35.161Z,-0.20
2022-11-22T21:07:23.321Z,-0.16
2022-11-22T21:10:07.666Z,-0.11
2022-11-22T21:13:22.425Z,-0.05
2022-11-22T21:16:15.592Z,-0.00
2022-11-22T21:19:11.363Z,0.02
2022-11-22T21:21:56.596Z,0.02
2022-11-22T21:24:35.325Z,0.01
2022-11-22T21:27:15.084Z,0.03
2022-11-22T21:30:08.506Z,0.03
2022-11-22T21:32:46.580Z,0.02
2022-11-22T21:35:16.654Z,-0.02
2022-11-22T21:37:48.116Z,-0.06
2022-11-22T21:40:18.011Z,-0.10
2022-11-22T21:42:47.043Z,-0.13
2022-11-22T21:45:23.002Z,-0.14
2022-11-22T21:48:08.355Z,-0.17
2022-11-22T21:50:41.026Z,-0.21
2022-11-22T21:53:13.506Z,-0.23
2022-11-22T21:56:03.692Z,-0.23
2022-11-22T21:58:37.994Z,-0.27
2022-11-22T22:01:13.652Z,-0.28
2022-11-22T22:03:54.428Z,-0.26
2022-11-22T22:06:27.292Z,-0.26
2022-11-22T22:09:01.345Z,-0.29
2022-11-22T22:11:31.802Z,-0.32
2022-11-22T22:14:17.866Z,-0.33
2022-11-22T22:16:54.017Z,-0.32
2022-11-22T22:19:40.817Z,-0.29
2022-11-22T22:22:40.507Z,-0.28
2022-11-22T22:25:23.898Z,-0.28
2022-11-22T22:28:16.412Z,-0.28
2022-11-22T22:30:53.122Z,-0.26
2022-11-22T22:33:24.907Z,-0.22
2022-11-22T22:36:04.187Z,-0.21
2022-11-22T22:38:39.196Z,-0.20
2022-11-22T22:41:11.078Z,-0.23
2022-11-22T22:43:44.877Z,-0.26
2022-11-22T22:46:14.733Z,-0.25
2022-11-22T22:48:45.747Z,-0.25
2022-11-22T22:51:31.931Z,-0.27
2022-11-22T22:54:11.268Z,-0.30
2022-11-22T22:56:42.696Z,-0.31
2022-11-22T22:59:11.919Z,-0.31
2022-11-22T23:01:44.085Z,-0.30
2022-11-22T23:04:18.442Z,-0.30
2022-11-22T23:06:47.362Z,-0.30
2022-11-22T23:09:16.211Z,-0.30
2022-11-22T23:12:04.059Z,-0.30
2022-11-22T23:14:33.197Z,-0.28
2022-11-22T23:17:02.354Z,-0.27
2022-11-22T23:19:31.601Z,-0.26
2022-11-22T23:22:01.337Z,-0.24
2022-11-22T23:24:32.257Z,-0.25
2022-11-22T23:27:01.810Z,-0.24
2022-11-22T23:29:31.204Z,-0.24
2022-11-22T23:32:00.617Z,-0.24
2022-11-22T23:34:29.773Z,-0.24
2022-11-22T23:36:58.499Z,-0.26
2022-11-22T23:39:27.536Z,-0.27
2022-11-22T23:41:56.440Z,-0.27
2022-11-22T23:44:25.448Z,-0.26
2022-11-22T23:46:54.581Z,-0.25
2022-11-22T23:49:23.320Z,-0.22
2022-11-22T23:51:52.075Z,-0.21
2022-11-22T23:54:20.631Z,-0.22
2022-11-22T23:56:49.634Z,-0.23
2022-11-22T23:59:21.822Z,-0.22
